Osage River (Missouri), Taberville (06918250)

StateMissouriLatestPoor (225 cfs)
RiverOsage RiverRatingObservedEstimated
Updated2021-03-03 14:45 (52 minutes ago)Flood - The river is flooding. Obstacles can be treacherous or deadly. The river should be avoided at this stage for casual trips and definitely for the inexperienced. Trips should be attempted only with protective gear and equipment.Flood(none)38403
Discharge225 cfs (median: 526 cfs)High - The river is high and potentially dangerous, especially for the young and / or inexperienced. Normal stream obstacles are sometimes difficult to navigate. Extended distances can be attempted, but canoe travel may not be advisable.High(none)7197
Height9.28 feetGood - Conditions are ideal for a canoe or kayak. Boats typically will drag on fewer than one-quarter of riffles, if at all, and portages are unnecessary or rare. Normal float lengths can be attempted without a problem.Good(none)4305
TrendFalling (falling over 24 hours)Low - River is low but can still be floated. Some riffles are okay but most come with significant dragging and might need a portage. Float lengths should be reduced to accommodate low flow, dragging, and portages.Low(none)1188
USGSExternal icon USGS Site (External icon Google Maps)Poor - River is too low to float comfortably. Most or all riffles will drag or must be portaged and some obstacles (such as slick shelf rock) cause undue problems. Avoid the river at this stage for casual paddling trips.Poor(none)50

Trending Data

Plot Image

Trips for Osage River (Missouri), Taberville (06918250)

DateStartEndDistanceConditionDischargeHeightFishingDetails

A total of 0 rows are displayed.

Condition Descriptions

Fishing Conditions

Fish Species

Notes

Classic Trip List

The classic River Trips application is still available for use. It is updated with the new system using a data retrofit. It is no longer maintained. The original River Trips application is no longer updated (as of 1 Dec 2016) but can be checked for errors or for the condition of the data before it was converted to the new system.

Gauge Data Table

ObservationHeightDischargeMaximum
Discharge
Minimum
Discharge
Mean
Discharge
P05P10P20P25P50
(Median)
P75P80P90P95
2021-03-03 14:45 9.28 225 18300 (2011) 267 (2014) 3250 267 316 329 526 3360 4290 18300
2021-03-03 13:45 9.34 239 18300 (2011) 267 (2014) 3250 267 316 329 526 3360 4290 18300
2021-03-03 12:45 9.43 261 18300 (2011) 267 (2014) 3250 267 316 329 526 3360 4290 18300
2021-03-03 11:45 9.51 282 18300 (2011) 267 (2014) 3250 267 316 329 526 3360 4290 18300
2021-03-03 10:45 9.55 293 18300 (2011) 267 (2014) 3250 267 316 329 526 3360 4290 18300
2021-03-03 09:45 9.56 296 18300 (2011) 267 (2014) 3250 267 316 329 526 3360 4290 18300
2021-03-03 08:45 9.58 301 18300 (2011) 267 (2014) 3250 267 316 329 526 3360 4290 18300
2021-03-03 07:45 9.57 299 18300 (2011) 267 (2014) 3250 267 316 329 526 3360 4290 18300
2021-03-03 06:45 9.56 296 18300 (2011) 267 (2014) 3250 267 316 329 526 3360 4290 18300
2021-03-03 05:45 9.54 290 18300 (2011) 267 (2014) 3250 267 316 329 526 3360 4290 18300
2021-03-03 04:45 9.53 288 18300 (2011) 267 (2014) 3250 267 316 329 526 3360 4290 18300
2021-03-03 03:45 9.53 288 18300 (2011) 267 (2014) 3250 267 316 329 526 3360 4290 18300
2021-03-03 02:45 9.52 285 18300 (2011) 267 (2014) 3250 267 316 329 526 3360 4290 18300
2021-03-03 01:45 9.53 288 18300 (2011) 267 (2014) 3250 267 316 329 526 3360 4290 18300
2021-03-03 00:45 9.55 293 18300 (2011) 267 (2014) 3250 267 316 329 526 3360 4290 18300
2021-03-02 23:45 9.57 299 17100 (2011) 296 (2017) 3180 296 317 335 544 3320 3570 17100
2021-03-02 22:45 9.59 304 17100 (2011) 296 (2017) 3180 296 317 335 544 3320 3570 17100
2021-03-02 21:45 9.59 304 17100 (2011) 296 (2017) 3180 296 317 335 544 3320 3570 17100
2021-03-02 20:45 9.56 296 17100 (2011) 296 (2017) 3180 296 317 335 544 3320 3570 17100
2021-03-02 19:45 9.52 285 17100 (2011) 296 (2017) 3180 296 317 335 544 3320 3570 17100
2021-03-02 18:45 9.48 274 17100 (2011) 296 (2017) 3180 296 317 335 544 3320 3570 17100
2021-03-02 17:45 9.47 272 17100 (2011) 296 (2017) 3180 296 317 335 544 3320 3570 17100
2021-03-02 16:45 9.51 282 17100 (2011) 296 (2017) 3180 296 317 335 544 3320 3570 17100
2021-03-02 15:45 9.53 288 17100 (2011) 296 (2017) 3180 296 317 335 544 3320 3570 17100
2021-03-02 14:45 9.51 282 17100 (2011) 296 (2017) 3180 296 317 335 544 3320 3570 17100
2021-03-02 13:45 9.57 299 17100 (2011) 296 (2017) 3180 296 317 335 544 3320 3570 17100
2021-03-02 12:45 9.54 290 17100 (2011) 296 (2017) 3180 296 317 335 544 3320 3570 17100
2021-03-02 11:45 9.52 285 17100 (2011) 296 (2017) 3180 296 317 335 544 3320 3570 17100
2021-03-02 10:45 9.53 288 17100 (2011) 296 (2017) 3180 296 317 335 544 3320 3570 17100
2021-03-02 09:45 9.52 285 17100 (2011) 296 (2017) 3180 296 317 335 544 3320 3570 17100
2021-03-02 08:45 9.52 285 17100 (2011) 296 (2017) 3180 296 317 335 544 3320 3570 17100
2021-03-02 07:45 9.50 280 17100 (2011) 296 (2017) 3180 296 317 335 544 3320 3570 17100
2021-03-02 06:45 9.51 282 17100 (2011) 296 (2017) 3180 296 317 335 544 3320 3570 17100
2021-03-02 05:45 9.49 277 17100 (2011) 296 (2017) 3180 296 317 335 544 3320 3570 17100
2021-03-02 04:45 9.47 272 17100 (2011) 296 (2017) 3180 296 317 335 544 3320 3570 17100
2021-03-02 03:45 9.46 269 17100 (2011) 296 (2017) 3180 296 317 335 544 3320 3570 17100
2021-03-02 02:45 9.46 269 17100 (2011) 296 (2017) 3180 296 317 335 544 3320 3570 17100
2021-03-02 01:45 9.46 269 17100 (2011) 296 (2017) 3180 296 317 335 544 3320 3570 17100
2021-03-02 00:45 9.47 272 17100 (2011) 296 (2017) 3180 296 317 335 544 3320 3570 17100
2021-03-01 23:45 9.47 272 15800 (2011) 236 (2017) 3260 236 284 326 524 4230 4270 15800
2021-03-01 22:45 9.46 269 15800 (2011) 236 (2017) 3260 236 284 326 524 4230 4270 15800
2021-03-01 21:45 9.45 266 15800 (2011) 236 (2017) 3260 236 284 326 524 4230 4270 15800
2021-03-01 20:45 9.45 266 15800 (2011) 236 (2017) 3260 236 284 326 524 4230 4270 15800
2021-03-01 19:45 9.45 266 15800 (2011) 236 (2017) 3260 236 284 326 524 4230 4270 15800
2021-03-01 18:45 9.46 269 15800 (2011) 236 (2017) 3260 236 284 326 524 4230 4270 15800
2021-03-01 17:45 9.44 264 15800 (2011) 236 (2017) 3260 236 284 326 524 4230 4270 15800
2021-03-01 16:45 9.44 264 15800 (2011) 236 (2017) 3260 236 284 326 524 4230 4270 15800
2021-03-01 15:45 9.43 261 15800 (2011) 236 (2017) 3260 236 284 326 524 4230 4270 15800
2021-03-01 14:45 9.44 264 15800 (2011) 236 (2017) 3260 236 284 326 524 4230 4270 15800
2021-03-01 13:45 9.43 261 15800 (2011) 236 (2017) 3260 236 284 326 524 4230 4270 15800
2021-03-01 12:45 9.40 254 15800 (2011) 236 (2017) 3260 236 284 326 524 4230 4270 15800
2021-03-01 11:45 9.43 261 15800 (2011) 236 (2017) 3260 236 284 326 524 4230 4270 15800
2021-03-01 10:45 9.43 261 15800 (2011) 236 (2017) 3260 236 284 326 524 4230 4270 15800
2021-03-01 09:45 9.44 264 15800 (2011) 236 (2017) 3260 236 284 326 524 4230 4270 15800
2021-03-01 08:45 9.46 269 15800 (2011) 236 (2017) 3260 236 284 326 524 4230 4270 15800
2021-03-01 07:45 9.48 274 15800 (2011) 236 (2017) 3260 236 284 326 524 4230 4270 15800
2021-03-01 06:45 9.48 274 15800 (2011) 236 (2017) 3260 236 284 326 524 4230 4270 15800
2021-03-01 05:45 9.48 274 15800 (2011) 236 (2017) 3260 236 284 326 524 4230 4270 15800
2021-03-01 04:45 9.47 272 15800 (2011) 236 (2017) 3260 236 284 326 524 4230 4270 15800
2021-03-01 03:45 9.46 269 15800 (2011) 236 (2017) 3260 236 284 326 524 4230 4270 15800
2021-03-01 02:45 9.46 269 15800 (2011) 236 (2017) 3260 236 284 326 524 4230 4270 15800
2021-03-01 01:45 9.46 269 15800 (2011) 236 (2017) 3260 236 284 326 524 4230 4270 15800
2021-03-01 00:45 9.46 269 15800 (2011) 236 (2017) 3260 236 284 326 524 4230 4270 15800
2021-02-28 23:45 9.46 269 21100 (2011) 167 (2017) 4470 167 372 381 596 6960 7960 21100
2021-02-28 22:45 9.48 274 21100 (2011) 167 (2017) 4470 167 372 381 596 6960 7960 21100
2021-02-28 21:45 9.49 277 21100 (2011) 167 (2017) 4470 167 372 381 596 6960 7960 21100
2021-02-28 20:45 9.48 274 21100 (2011) 167 (2017) 4470 167 372 381 596 6960 7960 21100
2021-02-28 19:45 9.48 274 21100 (2011) 167 (2017) 4470 167 372 381 596 6960 7960 21100
2021-02-28 18:45 9.48 274 21100 (2011) 167 (2017) 4470 167 372 381 596 6960 7960 21100
2021-02-28 17:45 9.45 266 21100 (2011) 167 (2017) 4470 167 372 381 596 6960 7960 21100
2021-02-28 16:45 9.42 259 21100 (2011) 167 (2017) 4470 167 372 381 596 6960 7960 21100
2021-02-28 15:45 9.40 254 21100 (2011) 167 (2017) 4470 167 372 381 596 6960 7960 21100
2021-02-28 14:45 9.36 244 21100 (2011) 167 (2017) 4470 167 372 381 596 6960 7960 21100
2021-02-28 13:45 9.34 239 21100 (2011) 167 (2017) 4470 167 372 381 596 6960 7960 21100
2021-02-28 12:45 9.35 241 21100 (2011) 167 (2017) 4470 167 372 381 596 6960 7960 21100
2021-02-28 11:45 9.34 239 21100 (2011) 167 (2017) 4470 167 372 381 596 6960 7960 21100
2021-02-28 10:45 9.34 239 21100 (2011) 167 (2017) 4470 167 372 381 596 6960 7960 21100
2021-02-28 09:45 9.38 249 21100 (2011) 167 (2017) 4470 167 372 381 596 6960 7960 21100
2021-02-28 08:45 9.37 246 21100 (2011) 167 (2017) 4470 167 372 381 596 6960 7960 21100
2021-02-28 07:45 9.38 249 21100 (2011) 167 (2017) 4470 167 372 381 596 6960 7960 21100
2021-02-28 06:45 9.38 249 21100 (2011) 167 (2017) 4470 167 372 381 596 6960 7960 21100
2021-02-28 05:45 9.38 249 21100 (2011) 167 (2017) 4470 167 372 381 596 6960 7960 21100
2021-02-28 04:45 9.36 244 21100 (2011) 167 (2017) 4470 167 372 381 596 6960 7960 21100
2021-02-28 03:45 9.36 244 21100 (2011) 167 (2017) 4470 167 372 381 596 6960 7960 21100
2021-02-28 02:45 9.35 241 21100 (2011) 167 (2017) 4470 167 372 381 596 6960 7960 21100
2021-02-28 01:45 9.35 241 21100 (2011) 167 (2017) 4470 167 372 381 596 6960 7960 21100
2021-02-28 00:45 9.35 241 21100 (2011) 167 (2017) 4470 167 372 381 596 6960 7960 21100

A total of 87 rows are displayed for years 2011 through 2019.